sensor_id;sensor_type;location;lat;lon;timestamp;pressure;altitude;pressure_sealevel;temperature;humidity
12172;BME280;6149;52.418;13.668;2023-04-21T00:00:56;101553.09;;;10.09;100.00
12172;BME280;6149;52.418;13.668;2023-04-21T00:03:26;101559.09;;;10.14;100.00
12172;BME280;6149;52.418;13.668;2023-04-21T00:05:55;101548.63;;;10.11;100.00
12172;BME280;6149;52.418;13.668;2023-04-21T00:08:24;101544.31;;;10.09;100.00
12172;BME280;6149;52.418;13.668;2023-04-21T00:10:52;101553.25;;;10.04;100.00
12172;BME280;6149;52.418;13.668;2023-04-21T00:13:21;101546.19;;;10.05;100.00
12172;BME280;6149;52.418;13.668;2023-04-21T00:15:48;101554.06;;;10.06;100.00
12172;BME280;6149;52.418;13.668;2023-04-21T00:18:18;101544.34;;;10.07;100.00
12172;BME280;6149;52.418;13.668;2023-04-21T00:20:48;101555.09;;;10.02;100.00
12172;BME280;6149;52.418;13.668;2023-04-21T00:23:16;101548.88;;;10.03;100.00
12172;BME280;6149;52.418;13.668;2023-04-21T00:25:47;101549.03;;;10.00;100.00
12172;BME280;6149;52.418;13.668;2023-04-21T00:28:13;101546.44;;;9.99;100.00
12172;BME280;6149;52.418;13.668;2023-04-21T00:30:40;101546.53;;;9.96;100.00
12172;BME280;6149;52.418;13.668;2023-04-21T00:33:07;101544.97;;;9.90;100.00
12172;BME280;6149;52.418;13.668;2023-04-21T00:35:34;101538.78;;;9.91;100.00
12172;BME280;6149;52.418;13.668;2023-04-21T00:38:03;101540.72;;;9.86;100.00
12172;BME280;6149;52.418;13.668;2023-04-21T00:40:29;101537.41;;;9.80;100.00
12172;BME280;6149;52.418;13.668;2023-04-21T00:42:56;101535.91;;;9.72;100.00
12172;BME280;6149;52.418;13.668;2023-04-21T00:45:23;101526.34;;;9.68;100.00
12172;BME280;6149;52.418;13.668;2023-04-21T00:47:53;101540.66;;;9.63;100.00
12172;BME280;6149;52.418;13.668;2023-04-21T00:50:20;101539.91;;;9.59;100.00
12172;BME280;6149;52.418;13.668;2023-04-21T00:52:49;101536.34;;;9.60;100.00
12172;BME280;6149;52.418;13.668;2023-04-21T00:55:18;101532.03;;;9.83;100.00
12172;BME280;6149;52.418;13.668;2023-04-21T00:57:47;101526.16;;;9.75;100.00
12172;BME280;6149;52.418;13.668;2023-04-21T01:00:24;101525.44;;;9.69;100.00
12172;BME280;6149;52.418;13.668;2023-04-21T01:02:52;101526.31;;;9.70;100.00
12172;BME280;6149;52.418;13.668;2023-04-21T01:05:21;101527.94;;;9.74;100.00
12172;BME280;6149;52.418;13.668;2023-04-21T01:07:52;101526.66;;;9.86;100.00
12172;BME280;6149;52.418;13.668;2023-04-21T01:10:21;101529.22;;;9.87;100.00
12172;BME280;6149;52.418;13.668;2023-04-21T01:12:48;101527.13;;;9.72;100.00
12172;BME280;6149;52.418;13.668;2023-04-21T01:15:19;101527.41;;;9.64;100.00
12172;BME280;6149;52.418;13.668;2023-04-21T01:17:56;101527.28;;;9.67;100.00
12172;BME280;6149;52.418;13.668;2023-04-21T01:20:24;101529.25;;;9.62;100.00
12172;BME280;6149;52.418;13.668;2023-04-21T01:22:56;101527.63;;;9.58;100.00
12172;BME280;6149;52.418;13.668;2023-04-21T01:25:24;101527.41;;;9.64;100.00
12172;BME280;6149;52.418;13.668;2023-04-21T01:27:53;101519.53;;;9.63;100.00
12172;BME280;6149;52.418;13.668;2023-04-21T01:30:21;101520.41;;;9.63;100.00
12172;BME280;6149;52.418;13.668;2023-04-21T01:32:52;101524.38;;;9.50;100.00
12172;BME280;6149;52.418;13.668;2023-04-21T01:35:20;101520.91;;;9.48;100.00
12172;BME280;6149;52.418;13.668;2023-04-21T01:37:47;101523.56;;;9.48;100.00
12172;BME280;6149;52.418;13.668;2023-04-21T01:40:15;101520.16;;;9.45;100.00
12172;BME280;6149;52.418;13.668;2023-04-21T01:42:43;101517.41;;;9.48;100.00
12172;BME280;6149;52.418;13.668;2023-04-21T01:45:12;101515.94;;;9.39;100.00
12172;BME280;6149;52.418;13.668;2023-04-21T01:47:40;101525.00;;;9.30;100.00
12172;BME280;6149;52.418;13.668;2023-04-21T01:50:08;101525.25;;;9.24;100.00
12172;BME280;6149;52.418;13.668;2023-04-21T01:52:35;101516.56;;;9.21;100.00
12172;BME280;6149;52.418;13.668;2023-04-21T01:55:02;101520.25;;;9.15;100.00
12172;BME280;6149;52.418;13.668;2023-04-21T01:57:32;101527.31;;;9.15;100.00
12172;BME280;6149;52.418;13.668;2023-04-21T01:59:59;101516.00;;;9.11;100.00
12172;BME280;6149;52.418;13.668;2023-04-21T02:02:26;101517.56;;;9.17;100.00
12172;BME280;6149;52.418;13.668;2023-04-21T02:04:54;101514.16;;;9.13;100.00
12172;BME280;6149;52.418;13.668;2023-04-21T02:07:23;101513.50;;;9.07;100.00
12172;BME280;6149;52.418;13.668;2023-04-21T02:09:50;101506.78;;;8.96;100.00
12172;BME280;6149;52.418;13.668;2023-04-21T02:12:20;101513.06;;;8.92;100.00
12172;BME280;6149;52.418;13.668;2023-04-21T02:14:49;101505.28;;;8.89;100.00
12172;BME280;6149;52.418;13.668;2023-04-21T02:17:20;101501.06;;;8.84;100.00
12172;BME280;6149;52.418;13.668;2023-04-21T02:19:49;101503.75;;;8.82;100.00
12172;BME280;6149;52.418;13.668;2023-04-21T02:22:18;101502.97;;;8.79;100.00
12172;BME280;6149;52.418;13.668;2023-04-21T02:24:47;101498.50;;;8.81;100.00
12172;BME280;6149;52.418;13.668;2023-04-21T02:27:15;101499.44;;;8.80;100.00
12172;BME280;6149;52.418;13.668;2023-04-21T02:29:43;101500.97;;;8.87;100.00
12172;BME280;6149;52.418;13.668;2023-04-21T02:32:11;101496.75;;;8.81;100.00
12172;BME280;6149;52.418;13.668;2023-04-21T02:34:37;101496.78;;;8.80;100.00
12172;BME280;6149;52.418;13.668;2023-04-21T02:37:06;101496.06;;;8.75;100.00
12172;BME280;6149;52.418;13.668;2023-04-21T02:39:33;101503.25;;;8.69;100.00
12172;BME280;6149;52.418;13.668;2023-04-21T02:42:00;101500.63;;;8.69;100.00
12172;BME280;6149;52.418;13.668;2023-04-21T02:44:28;101505.06;;;8.67;100.00
12172;BME280;6149;52.418;13.668;2023-04-21T02:46:56;101500.75;;;8.65;100.00
12172;BME280;6149;52.418;13.668;2023-04-21T02:49:26;101497.34;;;8.61;100.00
12172;BME280;6149;52.418;13.668;2023-04-21T02:51:56;101503.72;;;8.54;100.00
12172;BME280;6149;52.418;13.668;2023-04-21T02:54:25;101497.69;;;8.51;100.00
12172;BME280;6149;52.418;13.668;2023-04-21T02:56:53;101503.88;;;8.50;100.00
12172;BME280;6149;52.418;13.668;2023-04-21T02:59:19;101501.84;;;8.58;100.00
12172;BME280;6149;52.418;13.668;2023-04-21T03:01:46;101502.97;;;8.51;100.00
12172;BME280;6149;52.418;13.668;2023-04-21T03:04:13;101503.97;;;8.47;100.00
12172;BME280;6149;52.418;13.668;2023-04-21T03:06:41;101505.88;;;8.42;100.00
12172;BME280;6149;52.418;13.668;2023-04-21T03:09:08;101496.16;;;8.44;100.00
12172;BME280;6149;52.418;13.668;2023-04-21T03:11:34;101494.16;;;8.52;100.00
12172;BME280;6149;52.418;13.668;2023-04-21T03:14:01;101488.28;;;8.42;100.00
12172;BME280;6149;52.418;13.668;2023-04-21T03:16:29;101489.16;;;8.43;100.00
12172;BME280;6149;52.418;13.668;2023-04-21T03:18:55;101495.47;;;8.37;100.00
12172;BME280;6149;52.418;13.668;2023-04-21T03:21:25;101495.41;;;8.38;100.00
12172;BME280;6149;52.418;13.668;2023-04-21T03:23:58;101501.50;;;8.41;100.00
12172;BME280;6149;52.418;13.668;2023-04-21T03:26:25;101504.19;;;8.39;100.00
12172;BME280;6149;52.418;13.668;2023-04-21T03:28:53;101495.59;;;8.32;100.00
12172;BME280;6149;52.418;13.668;2023-04-21T03:31:26;101495.50;;;8.35;100.00
12172;BME280;6149;52.418;13.668;2023-04-21T03:33:54;101486.84;;;8.30;100.00
12172;BME280;6149;52.418;13.668;2023-04-21T03:36:20;101494.88;;;8.26;100.00
12172;BME280;6149;52.418;13.668;2023-04-21T03:38:50;101496.91;;;8.47;100.00
12172;BME280;6149;52.418;13.668;2023-04-21T03:41:27;101500.06;;;8.29;100.00
12172;BME280;6149;52.418;13.668;2023-04-21T03:43:54;101500.13;;;8.26;100.00
12172;BME280;6149;52.418;13.668;2023-04-21T03:46:22;101496.84;;;8.18;100.00
12172;BME280;6149;52.418;13.668;2023-04-21T03:48:49;101500.34;;;8.18;100.00
12172;BME280;6149;52.418;13.668;2023-04-21T03:51:19;101505.00;;;8.10;100.00
12172;BME280;6149;52.418;13.668;2023-04-21T03:53:46;101496.41;;;8.03;100.00
12172;BME280;6149;52.418;13.668;2023-04-21T03:56:12;101491.34;;;7.96;100.00
12172;BME280;6149;52.418;13.668;2023-04-21T03:58:40;101494.06;;;7.93;100.00
12172;BME280;6149;52.418;13.668;2023-04-21T04:01:07;101489.88;;;7.86;100.00
12172;BME280;6149;52.418;13.668;2023-04-21T04:03:33;101499.66;;;7.81;100.00
12172;BME280;6149;52.418;13.668;2023-04-21T04:06:03;101499.84;;;7.75;100.00
12172;BME280;6149;52.418;13.668;2023-04-21T04:08:30;101500.81;;;7.72;100.00
12172;BME280;6149;52.418;13.668;2023-04-21T04:10:58;101504.34;;;7.71;100.00
12172;BME280;6149;52.418;13.668;2023-04-21T04:13:26;101508.81;;;7.67;100.00
12172;BME280;6149;52.418;13.668;2023-04-21T04:16:01;101508.91;;;7.64;100.00
12172;BME280;6149;52.418;13.668;2023-04-21T04:18:31;101497.53;;;7.62;100.00
12172;BME280;6149;52.418;13.668;2023-04-21T04:21:04;101503.78;;;7.58;100.00
12172;BME280;6149;52.418;13.668;2023-04-21T04:23:32;101508.75;;;7.70;100.00
12172;BME280;6149;52.418;13.668;2023-04-21T04:26:00;101507.97;;;7.67;100.00
12172;BME280;6149;52.418;13.668;2023-04-21T04:28:30;101511.28;;;7.74;100.00
12172;BME280;6149;52.418;13.668;2023-04-21T04:31:03;101512.44;;;7.63;100.00
12172;BME280;6149;52.418;13.668;2023-04-21T04:33:30;101511.25;;;7.75;100.00
12172;BME280;6149;52.418;13.668;2023-04-21T04:35:58;101511.38;;;7.70;100.00
12172;BME280;6149;52.418;13.668;2023-04-21T04:38:26;101507.91;;;7.68;100.00
12172;BME280;6149;52.418;13.668;2023-04-21T04:40:55;101513.25;;;7.65;100.00
12172;BME280;6149;52.418;13.668;2023-04-21T04:43:24;101511.56;;;7.63;100.00
12172;BME280;6149;52.418;13.668;2023-04-21T04:45:52;101513.28;;;7.64;100.00
12172;BME280;6149;52.418;13.668;2023-04-21T04:48:25;101515.00;;;7.66;100.00
12172;BME280;6149;52.418;13.668;2023-04-21T04:50:53;101516.44;;;7.78;100.00
12172;BME280;6149;52.418;13.668;2023-04-21T04:53:23;101514.00;;;7.70;100.00
12172;BME280;6149;52.418;13.668;2023-04-21T04:55:50;101520.84;;;7.78;100.00
12172;BME280;6149;52.418;13.668;2023-04-21T04:58:18;101518.91;;;7.83;100.00
12172;BME280;6149;52.418;13.668;2023-04-21T05:00:47;101518.97;;;7.81;100.00
12172;BME280;6149;52.418;13.668;2023-04-21T05:03:13;101517.09;;;7.85;100.00
12172;BME280;6149;52.418;13.668;2023-04-21T05:05:42;101519.66;;;7.88;100.00
12172;BME280;6149;52.418;13.668;2023-04-21T05:08:11;101524.03;;;7.89;100.00
12172;BME280;6149;52.418;13.668;2023-04-21T05:10:37;101523.91;;;7.93;100.00
12172;BME280;6149;52.418;13.668;2023-04-21T05:13:05;101522.09;;;7.95;100.00
12172;BME280;6149;52.418;13.668;2023-04-21T05:15:32;101520.16;;;8.02;100.00
12172;BME280;6149;52.418;13.668;2023-04-21T05:17:58;101519.00;;;8.12;100.00
12172;BME280;6149;52.418;13.668;2023-04-21T05:20:26;101528.34;;;8.22;100.00
12172;BME280;6149;52.418;13.668;2023-04-21T05:22:57;101524.72;;;8.26;100.00
12172;BME280;6149;52.418;13.668;2023-04-21T05:25:26;101522.75;;;8.34;100.00
12172;BME280;6149;52.418;13.668;2023-04-21T05:27:52;101528.81;;;8.38;100.00
12172;BME280;6149;52.418;13.668;2023-04-21T05:30:21;101535.72;;;8.42;100.00
12172;BME280;6149;52.418;13.668;2023-04-21T05:32:50;101530.03;;;8.56;100.00
12172;BME280;6149;52.418;13.668;2023-04-21T05:35:18;101533.25;;;8.65;100.00
12172;BME280;6149;52.418;13.668;2023-04-21T05:37:47;101535.84;;;8.67;100.00
12172;BME280;6149;52.418;13.668;2023-04-21T05:40:17;101524.16;;;8.76;100.00
12172;BME280;6149;52.418;13.668;2023-04-21T05:42:46;101531.75;;;8.86;100.00
12172;BME280;6149;52.418;13.668;2023-04-21T05:45:14;101532.09;;;9.02;100.00
12172;BME280;6149;52.418;13.668;2023-04-21T05:47:42;101530.47;;;9.26;100.00
12172;BME280;6149;52.418;13.668;2023-04-21T05:50:10;101526.81;;;9.56;100.00
12172;BME280;6149;52.418;13.668;2023-04-21T05:52:38;101523.09;;;9.87;100.00
12172;BME280;6149;52.418;13.668;2023-04-21T05:55:06;101522.75;;;10.21;94.58
12172;BME280;6149;52.418;13.668;2023-04-21T05:57:34;101526.56;;;10.60;92.43
12172;BME280;6149;52.418;13.668;2023-04-21T06:00:05;101524.91;;;10.80;94.70
12172;BME280;6149;52.418;13.668;2023-04-21T06:02:35;101522.16;;;11.04;89.54
12172;BME280;6149;52.418;13.668;2023-04-21T06:05:02;101527.53;;;11.23;89.05
12172;BME280;6149;52.418;13.668;2023-04-21T06:07:29;101520.94;;;11.33;86.99
12172;BME280;6149;52.418;13.668;2023-04-21T06:09:57;101521.13;;;11.51;84.90
12172;BME280;6149;52.418;13.668;2023-04-21T06:12:25;101519.34;;;11.71;84.69
12172;BME280;6149;52.418;13.668;2023-04-21T06:14:57;101517.50;;;11.94;81.14
12172;BME280;6149;52.418;13.668;2023-04-21T06:17:25;101514.44;;;12.03;80.40
12172;BME280;6149;52.418;13.668;2023-04-21T06:19:53;101516.22;;;12.23;80.83
12172;BME280;6149;52.418;13.668;2023-04-21T06:22:20;101514.50;;;12.41;80.47
12172;BME280;6149;52.418;13.668;2023-04-21T06:24:51;101520.69;;;12.60;76.99
12172;BME280;6149;52.418;13.668;2023-04-21T06:27:23;101519.06;;;12.75;76.58
12172;BME280;6149;52.418;13.668;2023-04-21T06:29:57;101519.50;;;12.84;74.39
12172;BME280;6149;52.418;13.668;2023-04-21T06:32:24;101513.97;;;12.89;76.03
12172;BME280;6149;52.418;13.668;2023-04-21T06:34:55;101512.44;;;13.02;75.97
12172;BME280;6149;52.418;13.668;2023-04-21T06:37:26;101505.66;;;13.14;75.16
12172;BME280;6149;52.418;13.668;2023-04-21T06:39:54;101509.63;;;13.24;74.01
12172;BME280;6149;52.418;13.668;2023-04-21T06:42:21;101501.91;;;13.36;73.95
12172;BME280;6149;52.418;13.668;2023-04-21T06:44:50;101503.16;;;13.47;74.73
12172;BME280;6149;52.418;13.668;2023-04-21T06:47:22;101497.28;;;13.57;72.39
12172;BME280;6149;52.418;13.668;2023-04-21T06:49:53;101512.47;;;13.73;73.08
12172;BME280;6149;52.418;13.668;2023-04-21T06:52:20;101499.59;;;13.81;71.36
12172;BME280;6149;52.418;13.668;2023-04-21T06:54:48;101496.72;;;13.85;70.95
12172;BME280;6149;52.418;13.668;2023-04-21T06:57:16;101500.31;;;13.84;69.77
12172;BME280;6149;52.418;13.668;2023-04-21T06:59:43;101493.41;;;13.97;68.75
12172;BME280;6149;52.418;13.668;2023-04-21T07:02:11;101497.09;;;13.95;69.79
12172;BME280;6149;52.418;13.668;2023-04-21T07:04:39;101486.06;;;14.02;70.25
12172;BME280;6149;52.418;13.668;2023-04-21T07:07:06;101492.66;;;14.11;68.17
12172;BME280;6149;52.418;13.668;2023-04-21T07:09:32;101500.53;;;14.30;67.06
12172;BME280;6149;52.418;13.668;2023-04-21T07:12:00;101499.16;;;14.38;65.03
12172;BME280;6149;52.418;13.668;2023-04-21T07:14:28;101501.53;;;14.60;64.43
12172;BME280;6149;52.418;13.668;2023-04-21T07:16:56;101495.94;;;14.49;66.04
12172;BME280;6149;52.418;13.668;2023-04-21T07:19:23;101488.13;;;14.62;65.90
12172;BME280;6149;52.418;13.668;2023-04-21T07:21:55;101497.16;;;14.75;65.79
12172;BME280;6149;52.418;13.668;2023-04-21T07:24:25;101489.59;;;14.83;63.50
12172;BME280;6149;52.418;13.668;2023-04-21T07:26:53;101494.47;;;14.91;65.99
12172;BME280;6149;52.418;13.668;2023-04-21T07:29:22;101493.97;;;15.00;62.25
12172;BME280;6149;52.418;13.668;2023-04-21T07:31:49;101492.84;;;15.04;63.93
12172;BME280;6149;52.418;13.668;2023-04-21T07:34:21;101488.97;;;15.10;62.71
12172;BME280;6149;52.418;13.668;2023-04-21T07:36:53;101482.09;;;15.35;63.86
12172;BME280;6149;52.418;13.668;2023-04-21T07:39:23;101488.53;;;15.47;60.38
12172;BME280;6149;52.418;13.668;2023-04-21T07:41:50;101486.25;;;15.55;60.72
12172;BME280;6149;52.418;13.668;2023-04-21T07:44:19;101481.28;;;15.79;61.53
12172;BME280;6149;52.418;13.668;2023-04-21T07:46:47;101481.84;;;15.70;62.13
12172;BME280;6149;52.418;13.668;2023-04-21T07:49:15;101477.19;;;15.88;61.81
12172;BME280;6149;52.418;13.668;2023-04-21T07:51:43;101480.53;;;16.05;58.40
12172;BME280;6149;52.418;13.668;2023-04-21T07:54:11;101485.50;;;16.26;57.52
12172;BME280;6149;52.418;13.668;2023-04-21T07:56:37;101495.69;;;16.19;57.39
12172;BME280;6149;52.418;13.668;2023-04-21T07:59:06;101486.16;;;16.29;56.91
12172;BME280;6149;52.418;13.668;2023-04-21T08:01:32;101488.06;;;16.27;57.72
12172;BME280;6149;52.418;13.668;2023-04-21T08:03:59;101485.22;;;16.30;56.54
12172;BME280;6149;52.418;13.668;2023-04-21T08:06:27;101481.66;;;16.44;58.43
12172;BME280;6149;52.418;13.668;2023-04-21T08:08:55;101484.63;;;16.68;55.47
12172;BME280;6149;52.418;13.668;2023-04-21T08:11:25;101481.94;;;16.95;56.59
12172;BME280;6149;52.418;13.668;2023-04-21T08:13:55;101480.53;;;16.89;55.46
12172;BME280;6149;52.418;13.668;2023-04-21T08:16:26;101481.94;;;16.95;56.64
12172;BME280;6149;52.418;13.668;2023-04-21T08:18:54;101475.28;;;17.15;57.28
12172;BME280;6149;52.418;13.668;2023-04-21T08:21:23;101475.66;;;17.35;55.33
12172;BME280;6149;52.418;13.668;2023-04-21T08:23:52;101472.47;;;17.43;54.21
12172;BME280;6149;52.418;13.668;2023-04-21T08:26:20;101467.44;;;17.38;54.23
12172;BME280;6149;52.418;13.668;2023-04-21T08:28:52;101467.66;;;17.48;52.03
12172;BME280;6149;52.418;13.668;2023-04-21T08:31:20;101465.00;;;17.61;54.02
12172;BME280;6149;52.418;13.668;2023-04-21T08:33:48;101463.94;;;17.63;54.29
12172;BME280;6149;52.418;13.668;2023-04-21T08:36:16;101469.00;;;17.68;50.92
12172;BME280;6149;52.418;13.668;2023-04-21T08:38:45;101458.94;;;17.72;50.98
12172;BME280;6149;52.418;13.668;2023-04-21T08:41:12;101461.19;;;17.90;52.84
12172;BME280;6149;52.418;13.668;2023-04-21T08:43:39;101466.75;;;17.87;51.22
12172;BME280;6149;52.418;13.668;2023-04-21T08:46:08;101467.41;;;18.16;50.69
12172;BME280;6149;52.418;13.668;2023-04-21T08:48:37;101458.69;;;18.25;51.84
12172;BME280;6149;52.418;13.668;2023-04-21T08:51:07;101465.09;;;18.35;49.43
12172;BME280;6149;52.418;13.668;2023-04-21T08:53:35;101458.44;;;18.54;50.50
12172;BME280;6149;52.418;13.668;2023-04-21T08:56:03;101464.78;;;18.77;48.66
12172;BME280;6149;52.418;13.668;2023-04-21T08:58:32;101469.47;;;18.86;48.31
12172;BME280;6149;52.418;13.668;2023-04-21T09:00:59;101465.13;;;18.96;48.75
12172;BME280;6149;52.418;13.668;2023-04-21T09:03:31;101460.06;;;19.04;49.61
12172;BME280;6149;52.418;13.668;2023-04-21T09:06:00;101462.41;;;19.09;48.41
12172;BME280;6149;52.418;13.668;2023-04-21T09:08:30;101457.00;;;19.32;47.43
12172;BME280;6149;52.418;13.668;2023-04-21T09:10:59;101460.81;;;19.41;47.49
12172;BME280;6149;52.418;13.668;2023-04-21T09:13:32;101460.28;;;19.60;48.32
12172;BME280;6149;52.418;13.668;2023-04-21T09:16:01;101464.81;;;19.70;48.00
12172;BME280;6149;52.418;13.668;2023-04-21T09:18:31;101454.84;;;19.95;46.23
12172;BME280;6149;52.418;13.668;2023-04-21T09:21:06;101471.81;;;20.18;45.82
12172;BME280;6149;52.418;13.668;2023-04-21T09:23:41;101458.78;;;20.02;45.48
12172;BME280;6149;52.418;13.668;2023-04-21T09:26:10;101451.19;;;20.18;46.00
12172;BME280;6149;52.418;13.668;2023-04-21T09:28:40;101462.28;;;20.25;45.42
12172;BME280;6149;52.418;13.668;2023-04-21T09:31:16;101459.13;;;20.42;44.89
12172;BME280;6149;52.418;13.668;2023-04-21T09:33:49;101457.03;;;20.57;44.28
12172;BME280;6149;52.418;13.668;2023-04-21T09:36:18;101463.88;;;20.50;44.05
12172;BME280;6149;52.418;13.668;2023-04-21T09:38:54;101449.84;;;20.46;44.81
12172;BME280;6149;52.418;13.668;2023-04-21T09:41:21;101455.66;;;20.74;44.20
12172;BME280;6149;52.418;13.668;2023-04-21T09:43:53;101445.84;;;20.84;44.06
12172;BME280;6149;52.418;13.668;2023-04-21T09:46:27;101455.94;;;21.02;41.72
12172;BME280;6149;52.418;13.668;2023-04-21T09:49:02;101442.31;;;21.15;42.50
12172;BME280;6149;52.418;13.668;2023-04-21T09:51:30;101441.38;;;21.37;44.96
12172;BME280;6149;52.418;13.668;2023-04-21T09:53:58;101439.00;;;21.64;41.22
12172;BME280;6149;52.418;13.668;2023-04-21T09:56:29;101441.56;;;21.66;39.99
12172;BME280;6149;52.418;13.668;2023-04-21T09:59:00;101443.16;;;21.48;41.50
12172;BME280;6149;52.418;13.668;2023-04-21T10:01:31;101446.63;;;21.39;40.99
12172;BME280;6149;52.418;13.668;2023-04-21T10:04:01;101442.66;;;21.22;41.91
12172;BME280;6149;52.418;13.668;2023-04-21T10:06:33;101438.09;;;21.33;42.74
12172;BME280;6149;52.418;13.668;2023-04-21T10:09:03;101439.75;;;21.46;43.12
12172;BME280;6149;52.418;13.668;2023-04-21T10:11:31;101433.03;;;21.61;43.23
12172;BME280;6149;52.418;13.668;2023-04-21T10:14:01;101425.00;;;21.71;43.77
12172;BME280;6149;52.418;13.668;2023-04-21T10:16:29;101428.63;;;22.11;41.66
12172;BME280;6149;52.418;13.668;2023-04-21T10:18:57;101421.53;;;22.10;40.59
12172;BME280;6149;52.418;13.668;2023-04-21T10:21:28;101422.19;;;22.23;40.33
12172;BME280;6149;52.418;13.668;2023-04-21T10:23:56;101429.81;;;22.28;40.70
12172;BME280;6149;52.418;13.668;2023-04-21T10:26:26;101419.03;;;22.28;40.82
12172;BME280;6149;52.418;13.668;2023-04-21T10:29:00;101426.31;;;22.27;40.29
12172;BME280;6149;52.418;13.668;2023-04-21T10:31:33;101420.50;;;22.01;40.68
12172;BME280;6149;52.418;13.668;2023-04-21T10:37:15;101417.72;;;22.13;39.86
12172;BME280;6149;52.418;13.668;2023-04-21T10:39:55;101411.22;;;22.15;40.36
12172;BME280;6149;52.418;13.668;2023-04-21T10:42:32;101418.34;;;22.26;41.43
12172;BME280;6149;52.418;13.668;2023-04-21T10:45:06;101412.50;;;21.90;40.99
12172;BME280;6149;52.418;13.668;2023-04-21T10:47:41;101404.50;;;21.79;41.97
12172;BME280;6149;52.418;13.668;2023-04-21T10:50:21;101391.72;;;21.72;41.57
12172;BME280;6149;52.418;13.668;2023-04-21T10:52:57;101396.03;;;21.84;42.75
12172;BME280;6149;52.418;13.668;2023-04-21T10:55:28;101396.72;;;22.07;42.34
12172;BME280;6149;52.418;13.668;2023-04-21T10:57:59;101396.78;;;21.95;41.60
12172;BME280;6149;52.418;13.668;2023-04-21T11:00:28;101393.75;;;22.10;42.37
12172;BME280;6149;52.418;13.668;2023-04-21T11:02:59;101397.03;;;22.13;42.49
12172;BME280;6149;52.418;13.668;2023-04-21T11:05:30;101385.56;;;22.21;41.74
12172;BME280;6149;52.418;13.668;2023-04-21T11:08:08;101374.91;;;22.10;39.72
12172;BME280;6149;52.418;13.668;2023-04-21T11:10:48;101377.50;;;22.00;40.61
12172;BME280;6149;52.418;13.668;2023-04-21T11:13:21;101372.66;;;22.15;41.33
12172;BME280;6149;52.418;13.668;2023-04-21T11:16:00;101368.41;;;22.22;40.39
12172;BME280;6149;52.418;13.668;2023-04-21T11:18:46;101372.75;;;22.04;41.15
12172;BME280;6149;52.418;13.668;2023-04-21T11:21:14;101377.78;;;21.87;41.20
12172;BME280;6149;52.418;13.668;2023-04-21T11:23:50;101359.88;;;21.56;42.31
12172;BME280;6149;52.418;13.668;2023-04-21T11:26:29;101365.13;;;21.57;42.71
12172;BME280;6149;52.418;13.668;2023-04-21T11:29:02;101359.53;;;21.70;42.21
12172;BME280;6149;52.418;13.668;2023-04-21T11:31:30;101361.84;;;21.75;40.81
12172;BME280;6149;52.418;13.668;2023-04-21T11:33:58;101358.97;;;21.66;42.58
12172;BME280;6149;52.418;13.668;2023-04-21T11:36:26;101350.94;;;21.46;40.46
12172;BME280;6149;52.418;13.668;2023-04-21T11:39:03;101352.13;;;21.32;41.94
12172;BME280;6149;52.418;13.668;2023-04-21T11:41:33;101340.66;;;21.19;41.41
12172;BME280;6149;52.418;13.668;2023-04-21T11:44:00;101344.84;;;21.23;43.19
12172;BME280;6149;52.418;13.668;2023-04-21T11:46:28;101344.69;;;21.24;43.41
12172;BME280;6149;52.418;13.668;2023-04-21T11:49:00;101343.00;;;21.23;42.47
12172;BME280;6149;52.418;13.668;2023-04-21T11:51:32;101339.19;;;21.47;42.47
12172;BME280;6149;52.418;13.668;2023-04-21T11:54:05;101330.84;;;21.29;43.79
12172;BME280;6149;52.418;13.668;2023-04-21T11:56:35;101332.03;;;21.36;40.80
12172;BME280;6149;52.418;13.668;2023-04-21T11:59:05;101328.88;;;21.31;40.82
12172;BME280;6149;52.418;13.668;2023-04-21T12:01:33;101319.84;;;21.32;42.29
12172;BME280;6149;52.418;13.668;2023-04-21T12:04:02;101322.84;;;21.39;41.51
12172;BME280;6149;52.418;13.668;2023-04-21T12:06:30;101327.78;;;21.33;41.40
12172;BME280;6149;52.418;13.668;2023-04-21T12:09:00;101326.38;;;20.97;40.00
12172;BME280;6149;52.418;13.668;2023-04-21T12:11:33;101321.13;;;20.75;41.39
12172;BME280;6149;52.418;13.668;2023-04-21T12:14:00;101310.44;;;20.85;43.08
12172;BME280;6149;52.418;13.668;2023-04-21T12:16:28;101307.69;;;20.96;41.43
12172;BME280;6149;52.418;13.668;2023-04-21T12:18:55;101310.19;;;21.09;43.03
12172;BME280;6149;52.418;13.668;2023-04-21T12:21:26;101325.38;;;21.19;40.38
12172;BME280;6149;52.418;13.668;2023-04-21T12:23:55;101309.13;;;21.00;40.05
12172;BME280;6149;52.418;13.668;2023-04-21T12:26:26;101302.69;;;20.91;40.66
12172;BME280;6149;52.418;13.668;2023-04-21T12:28:56;101302.00;;;21.10;38.95
12172;BME280;6149;52.418;13.668;2023-04-21T12:31:28;101295.28;;;21.05;39.37
12172;BME280;6149;52.418;13.668;2023-04-21T12:33:56;101295.88;;;21.08;40.46
12172;BME280;6149;52.418;13.668;2023-04-21T12:36:25;101293.59;;;21.03;40.45
12172;BME280;6149;52.418;13.668;2023-04-21T12:38:55;101292.09;;;21.11;39.93
12172;BME280;6149;52.418;13.668;2023-04-21T12:41:30;101293.50;;;20.94;39.13
12172;BME280;6149;52.418;13.668;2023-04-21T12:43:58;101302.38;;;20.85;39.01
12172;BME280;6149;52.418;13.668;2023-04-21T12:46:27;101293.44;;;20.84;38.51
12172;BME280;6149;52.418;13.668;2023-04-21T12:48:55;101286.56;;;20.91;38.42
12172;BME280;6149;52.418;13.668;2023-04-21T12:51:24;101277.59;;;21.02;37.80
12172;BME280;6149;52.418;13.668;2023-04-21T12:53:53;101281.06;;;21.14;39.53
12172;BME280;6149;52.418;13.668;2023-04-21T12:56:23;101284.25;;;21.28;37.70
12172;BME280;6149;52.418;13.668;2023-04-21T12:58:58;101267.59;;;21.34;37.59
12172;BME280;6149;52.418;13.668;2023-04-21T13:01:26;101270.59;;;21.41;38.36
12172;BME280;6149;52.418;13.668;2023-04-21T13:04:02;101260.38;;;21.35;38.33